createdAt,value
2022-10-04T00:01:47.877Z,99834.53
2022-10-04T00:04:40.992Z,99838.00
2022-10-04T00:07:17.798Z,99834.56
2022-10-04T00:09:58.367Z,99832.03
2022-10-04T00:12:29.434Z,99830.31
2022-10-04T00:14:59.482Z,99829.44
2022-10-04T00:17:31.767Z,99828.56
2022-10-04T00:19:58.921Z,99827.69
2022-10-04T00:22:33.167Z,99825.94
2022-10-04T00:25:13.727Z,99828.53
2022-10-04T00:28:19.345Z,99828.50
2022-10-04T00:31:12.471Z,99835.41
2022-10-04T00:34:04.227Z,99837.94
2022-10-04T00:36:36.677Z,99830.94
2022-10-04T00:39:09.636Z,99828.22
2022-10-04T00:41:49.016Z,99829.84
2022-10-04T00:44:21.674Z,99835.88
2022-10-04T00:46:49.017Z,99829.69
2022-10-04T00:49:18.354Z,99827.91
2022-10-04T00:51:54.618Z,99828.72
2022-10-04T00:54:34.366Z,99834.72
2022-10-04T00:57:22.714Z,99823.41
2022-10-04T00:59:54.739Z,99825.13
2022-10-04T01:02:32.710Z,99822.41
2022-10-04T01:05:06.848Z,99825.03
2022-10-04T01:07:39.249Z,99818.09
2022-10-04T01:10:11.716Z,99815.44
2022-10-04T01:12:46.258Z,99811.06
2022-10-04T01:15:22.156Z,99820.66
2022-10-04T01:18:09.638Z,99829.34
2022-10-04T01:21:05.576Z,99821.63
2022-10-04T01:23:38.564Z,99822.59
2022-10-04T01:26:07.185Z,99814.00
2022-10-04T01:28:35.110Z,99821.09
2022-10-04T01:31:02.314Z,99824.63
2022-10-04T01:33:30.078Z,99822.97
2022-10-04T01:35:57.496Z,99831.72
2022-10-04T01:38:24.449Z,99835.22
2022-10-04T01:41:00.113Z,99828.31
2022-10-04T01:43:32.330Z,99829.22
2022-10-04T01:46:04.958Z,99827.50
2022-10-04T01:48:37.169Z,99827.53
2022-10-04T01:51:11.731Z,99827.53
2022-10-04T01:53:50.751Z,99837.94
2022-10-04T01:56:20.869Z,99829.31
2022-10-04T01:58:52.437Z,99822.41
2022-10-04T02:01:23.831Z,99826.75
2022-10-04T02:04:40.585Z,99834.56
2022-10-04T02:07:12.936Z,99830.28
2022-10-04T02:09:43.829Z,99826.81
2022-10-04T02:12:17.364Z,99819.91
2022-10-04T02:14:52.722Z,99825.13
2022-10-04T02:17:28.340Z,99820.78
2022-10-04T02:19:55.714Z,99825.13
2022-10-04T02:22:23.864Z,99827.72
2022-10-04T02:24:50.962Z,99820.81
2022-10-04T02:27:17.947Z,99825.13
2022-10-04T02:29:45.439Z,99824.22
2022-10-04T02:32:32.805Z,99822.50
2022-10-04T02:34:59.899Z,99823.41
2022-10-04T02:37:28.105Z,99830.28
2022-10-04T02:40:04.286Z,99826.84
2022-10-04T02:42:39.971Z,99826.84
2022-10-04T02:45:37.858Z,99828.59
2022-10-04T02:48:34.710Z,99829.47
2022-10-04T02:51:12.387Z,99838.97
2022-10-04T02:54:02.983Z,99832.00
2022-10-04T02:56:31.648Z,99832.91
2022-10-04T02:59:03.857Z,99836.38
2022-10-04T03:01:44.141Z,99832.91
2022-10-04T03:04:13.707Z,99834.66
2022-10-04T03:06:42.285Z,99840.72
2022-10-04T03:09:09.480Z,99842.41
2022-10-04T03:11:39.111Z,99836.38
2022-10-04T03:14:28.058Z,99846.81
2022-10-04T03:16:56.588Z,99841.66
2022-10-04T03:19:25.451Z,99838.19
2022-10-04T03:21:54.412Z,99846.84
2022-10-04T03:24:31.726Z,99851.19
2022-10-04T03:27:00.985Z,99854.66
2022-10-04T03:29:30.372Z,99858.13
2022-10-04T03:31:58.318Z,99854.63
2022-10-04T03:34:28.543Z,99858.13
2022-10-04T03:36:58.818Z,99855.53
2022-10-04T03:39:58.318Z,99853.81
2022-10-04T03:42:30.469Z,99853.00
2022-10-04T03:45:07.585Z,99857.38
2022-10-04T03:47:36.920Z,99851.28
2022-10-04T03:50:13.191Z,99853.84
2022-10-04T03:52:50.875Z,99864.28
2022-10-04T03:55:18.662Z,99865.16
2022-10-04T03:57:45.828Z,99870.34
2022-10-04T04:00:17.314Z,99872.09
2022-10-04T04:02:54.676Z,99877.25
2022-10-04T04:05:26.617Z,99872.03
2022-10-04T04:08:12.437Z,99871.16
2022-10-04T04:10:43.006Z,99866.00
2022-10-04T04:13:24.663Z,99877.28
2022-10-04T04:15:54.816Z,99881.59
2022-10-04T04:18:24.318Z,99869.50
2022-10-04T04:20:53.876Z,99876.41
2022-10-04T04:23:35.026Z,99872.91
2022-10-04T04:26:28.576Z,99880.72
2022-10-04T04:29:14.308Z,99885.91
2022-10-04T04:31:43.936Z,99887.63
2022-10-04T04:34:22.357Z,99884.97
2022-10-04T04:36:49.356Z,99884.06
2022-10-04T04:39:43.132Z,99889.22
2022-10-04T04:42:25.222Z,99889.97
2022-10-04T04:44:53.127Z,99896.84
2022-10-04T04:47:40.817Z,99895.06
2022-10-04T04:50:15.976Z,99898.47
2022-10-04T04:53:05.922Z,99900.16
2022-10-04T04:56:02.683Z,99900.91
2022-10-04T04:58:39.426Z,99902.56
2022-10-04T05:01:13.837Z,99903.31
2022-10-04T05:03:41.743Z,99907.59
2022-10-04T05:06:28.117Z,99906.75
2022-10-04T05:08:55.121Z,99901.59
2022-10-04T05:11:23.347Z,99906.78
2022-10-04T05:13:53.917Z,99906.78
2022-10-04T05:16:25.258Z,99913.69
2022-10-04T05:19:01.009Z,99917.16
2022-10-04T05:21:30.300Z,99907.50
2022-10-04T05:23:58.924Z,99911.03
2022-10-04T05:26:30.945Z,99918.88
2022-10-04T05:29:00.081Z,99928.38
2022-10-04T05:31:42.440Z,99921.41
2022-10-04T05:34:29.483Z,99923.00
2022-10-04T05:37:45.452Z,99926.41
2022-10-04T05:40:15.184Z,99923.75
2022-10-04T05:42:49.489Z,99922.88
2022-10-04T05:45:25.330Z,99928.94
2022-10-04T05:48:00.952Z,99928.09
2022-10-04T05:50:36.477Z,99934.06
2022-10-04T05:53:29.418Z,99939.97
2022-10-04T05:56:34.179Z,99945.88
2022-10-04T05:59:36.633Z,99948.25
2022-10-04T06:02:20.463Z,99946.31
2022-10-04T06:05:00.146Z,99949.16
2022-10-04T06:07:47.453Z,99953.56
2022-10-04T06:10:36.618Z,99954.38
2022-10-04T06:13:31.052Z,99955.34
2022-10-04T06:16:04.623Z,99960.50
2022-10-04T06:18:59.549Z,99963.06
2022-10-04T06:21:32.218Z,99971.72
2022-10-04T06:24:06.001Z,99961.28
2022-10-04T06:26:57.043Z,99974.28
2022-10-04T06:29:28.748Z,99981.19
2022-10-04T06:32:33.212Z,99982.81
2022-10-04T06:35:21.428Z,99988.75
2022-10-04T06:38:13.264Z,99979.03
2022-10-04T06:40:56.070Z,99984.19
2022-10-04T06:43:38.076Z,99992.63
2022-10-04T06:46:17.408Z,99994.09
2022-10-04T06:49:00.426Z,99993.22
2022-10-04T06:51:53.859Z,99994.03
2022-10-04T06:54:28.100Z,99993.00
2022-10-04T06:57:19.545Z,99990.25
2022-10-04T07:00:00.198Z,99997.19
2022-10-04T07:02:39.844Z,99997.22
2022-10-04T07:05:21.797Z,100000.69
2022-10-04T07:08:06.851Z,100006.75
2022-10-04T07:10:55.611Z,100002.25
2022-10-04T07:13:28.968Z,100002.13
2022-10-04T07:16:02.442Z,100016.94
2022-10-04T07:19:03.476Z,100022.06
2022-10-04T07:21:49.795Z,100027.97
2022-10-04T07:24:32.809Z,100022.59
2022-10-04T07:29:36.689Z,100028.53
2022-10-04T07:32:08.926Z,100043.22
2022-10-04T07:34:47.299Z,100035.28
2022-10-04T07:37:15.187Z,100031.72
2022-10-04T07:39:50.831Z,100035.22
2022-10-04T07:42:24.777Z,100050.16
2022-10-04T07:45:30.345Z,100050.81
2022-10-04T07:48:16.765Z,100050.81
2022-10-04T07:51:10.058Z,100057.72
2022-10-04T07:53:50.479Z,100048.03
2022-10-04T07:56:27.278Z,100054.94
2022-10-04T07:59:06.427Z,100062.56
2022-10-04T08:01:49.028Z,100058.94
2022-10-04T08:04:31.976Z,100052.69
2022-10-04T08:07:01.623Z,100067.72
2022-10-04T08:09:42.818Z,100067.91
2022-10-04T08:12:28.990Z,100065.31
2022-10-04T08:15:41.194Z,100066.91
2022-10-04T08:18:08.297Z,100070.97
2022-10-04T08:20:58.238Z,100073.44
2022-10-04T08:24:22.627Z,100080.09
2022-10-04T08:27:02.167Z,100078.25
2022-10-04T08:29:45.118Z,100089.63
2022-10-04T08:32:33.289Z,100093.38
2022-10-04T08:35:19.618Z,100097.09
2022-10-04T08:38:21.830Z,100105.00
2022-10-04T08:40:54.510Z,100112.06
2022-10-04T08:43:59.609Z,100101.81
2022-10-04T08:46:59.253Z,100107.75
2022-10-04T08:49:40.019Z,100114.47
2022-10-04T08:52:44.296Z,100121.13
2022-10-04T08:55:31.440Z,100124.47
2022-10-04T08:58:23.894Z,100124.41
2022-10-04T09:01:18.421Z,100134.25
2022-10-04T09:04:04.035Z,100123.13
2022-10-04T09:07:01.890Z,100129.19
2022-10-04T09:09:56.976Z,100127.28
2022-10-04T09:12:41.393Z,100128.97
2022-10-04T09:15:14.845Z,100135.81
2022-10-04T09:18:12.935Z,100136.59
2022-10-04T09:21:01.313Z,100150.50
2022-10-04T09:23:31.547Z,100139.84
2022-10-04T09:26:21.069Z,100134.44
2022-10-04T09:29:33.272Z,100138.69
2022-10-04T09:32:11.657Z,100138.50
2022-10-04T09:35:06.507Z,100151.50
2022-10-04T09:38:03.021Z,100163.41
2022-10-04T09:41:07.398Z,100157.41
2022-10-04T09:44:13.866Z,100161.25
2022-10-04T09:47:08.020Z,100173.72
2022-10-04T09:50:14.197Z,100178.00
2022-10-04T09:53:08.811Z,100177.00
2022-10-04T09:56:12.950Z,100183.78
2022-10-04T09:58:58.757Z,100190.72
2022-10-04T10:01:45.341Z,100185.44
2022-10-04T10:04:49.691Z,100194.88
2022-10-04T10:07:35.018Z,100192.09
2022-10-04T10:10:28.995Z,100192.03
2022-10-04T10:13:38.431Z,100186.59
2022-10-04T10:16:20.255Z,100197.78
2022-10-04T10:19:14.941Z,100187.16
2022-10-04T10:21:44.669Z,100195.75
2022-10-04T10:24:17.470Z,100194.13
2022-10-04T10:27:25.297Z,100202.03
2022-10-04T10:30:19.058Z,100203.00
2022-10-04T10:33:04.764Z,100212.81
2022-10-04T10:35:53.732Z,100212.31
2022-10-04T10:38:40.424Z,100211.53
2022-10-04T10:41:41.561Z,100215.16
2022-10-04T10:44:23.646Z,100215.94
2022-10-04T10:47:09.047Z,100218.19
2022-10-04T10:49:54.348Z,100207.31
2022-10-04T10:52:44.038Z,100214.84
2022-10-04T10:55:49.276Z,100221.69
2022-10-04T10:58:53.457Z,100215.66
2022-10-04T11:01:42.387Z,100223.44
2022-10-04T11:04:40.519Z,100219.75
2022-10-04T11:07:37.414Z,100223.19
2022-10-04T11:10:26.839Z,100227.66
2022-10-04T11:13:10.311Z,100235.66
2022-10-04T11:16:07.952Z,100241.81
2022-10-04T11:18:41.234Z,100246.25
2022-10-04T11:21:35.199Z,100246.34
2022-10-04T11:24:32.870Z,100260.50
2022-10-04T11:27:25.156Z,100256.47
2022-10-04T11:30:14.086Z,100245.19
2022-10-04T11:33:18.269Z,100249.06
2022-10-04T11:36:19.252Z,100250.50
2022-10-04T11:39:07.032Z,100243.00
2022-10-04T11:41:40.060Z,100252.16
2022-10-04T11:44:31.145Z,100243.13
2022-10-04T11:47:24.685Z,100247.38
2022-10-04T11:50:14.585Z,100241.13
2022-10-04T11:52:44.551Z,100242.69
2022-10-04T11:55:36.558Z,100244.38
2022-10-04T11:58:40.337Z,100244.47
2022-10-04T12:01:30.505Z,100236.53
2022-10-04T12:04:35.111Z,100239.34
2022-10-04T12:07:31.104Z,100240.25
2022-10-04T12:10:30.439Z,100244.59
2022-10-04T12:13:34.797Z,100248.13
2022-10-04T12:16:32.663Z,100241.13
2022-10-04T12:19:30.313Z,100244.47
2022-10-04T12:22:12.513Z,100235.00
2022-10-04T12:24:59.547Z,100253.34
2022-10-04T12:27:39.505Z,100244.59
2022-10-04T12:30:34.473Z,100235.25
2022-10-04T12:33:27.565Z,100249.41
2022-10-04T12:36:13.695Z,100255.66
2022-10-04T12:38:53.577Z,100257.53
2022-10-04T12:41:46.064Z,100261.41
2022-10-04T12:44:34.225Z,100264.34
2022-10-04T12:47:26.251Z,100260.16
2022-10-04T12:49:54.895Z,100269.69
2022-10-04T12:52:25.524Z,100266.13
2022-10-04T12:55:41.016Z,100272.19
2022-10-04T12:58:33.197Z,100273.78
2022-10-04T13:01:27.525Z,100273.53
2022-10-04T13:03:55.157Z,100270.06
2022-10-04T13:06:31.636Z,100272.53
2022-10-04T13:09:17.947Z,100268.88
2022-10-04T13:12:22.941Z,100260.00
2022-10-04T13:15:11.190Z,100262.25
2022-10-04T13:17:55.071Z,100268.22
2022-10-04T13:20:26.242Z,100260.47
2022-10-04T13:23:08.111Z,100274.47
2022-10-04T13:26:06.072Z,100264.19
2022-10-04T13:29:02.001Z,100272.47
2022-10-04T13:32:01.435Z,100274.47
2022-10-04T13:34:49.660Z,100271.06
2022-10-04T13:37:45.321Z,100276.16
2022-10-04T13:40:33.337Z,100282.91
2022-10-04T13:43:28.412Z,100270.66
2022-10-04T13:46:08.326Z,100279.22
2022-10-04T13:48:55.649Z,100280.91
2022-10-04T13:51:31.376Z,100289.81
2022-10-04T13:54:31.911Z,100278.63
2022-10-04T13:57:13.453Z,100278.00
2022-10-04T14:00:02.377Z,100286.09
2022-10-04T14:02:48.021Z,100290.72
2022-10-04T14:05:32.502Z,100292.59
2022-10-04T14:08:37.131Z,100286.44
2022-10-04T14:11:26.854Z,100289.00
2022-10-04T14:14:40.445Z,100289.97
2022-10-04T14:17:46.397Z,100290.84
2022-10-04T14:20:44.168Z,100285.56
2022-10-04T14:23:35.847Z,100283.91
2022-10-04T14:26:34.277Z,100283.91
2022-10-04T14:29:19.661Z,100283.19
2022-10-04T14:32:20.516Z,100286.75
2022-10-04T14:34:57.286Z,100292.09
2022-10-04T14:38:02.039Z,100289.56
2022-10-04T14:40:47.482Z,100292.31
2022-10-04T14:43:44.987Z,100298.50
2022-10-04T14:46:30.280Z,100298.44
2022-10-04T14:49:11.690Z,100300.16
2022-10-04T14:51:42.527Z,100294.94
2022-10-04T14:54:29.988Z,100290.53
2022-10-04T14:57:21.056Z,100295.84
2022-10-04T15:00:25.399Z,100297.53
2022-10-04T15:03:02.979Z,100286.16
2022-10-04T15:05:45.398Z,100301.88
2022-10-04T15:08:43.081Z,100292.31
2022-10-04T15:11:17.481Z,100303.72
2022-10-04T15:14:05.403Z,100310.84
2022-10-04T15:16:40.497Z,100299.59
2022-10-04T15:19:23.777Z,100300.59
2022-10-04T15:22:06.043Z,100312.06
2022-10-04T15:24:39.668Z,100297.41
2022-10-04T15:27:37.111Z,100307.16
2022-10-04T15:30:17.993Z,100311.69
2022-10-04T15:33:11.634Z,100312.63
2022-10-04T15:35:57.090Z,100307.53
2022-10-04T15:38:44.767Z,100307.66
2022-10-04T15:41:46.167Z,100304.25
2022-10-04T15:45:09.742Z,100312.25
2022-10-04T15:48:13.788Z,100314.06
2022-10-04T15:50:59.324Z,100314.25
2022-10-04T15:53:57.292Z,100314.38
2022-10-04T15:56:24.505Z,100311.03
2022-10-04T15:58:57.117Z,100312.97
2022-10-04T16:02:01.507Z,100323.53
2022-10-04T16:04:37.653Z,100325.34
2022-10-04T16:07:07.797Z,100322.03
2022-10-04T16:10:12.200Z,100332.59
2022-10-04T16:13:01.526Z,100322.25
2022-10-04T16:15:42.478Z,100331.06
2022-10-04T16:18:31.499Z,100344.25
2022-10-04T16:21:12.860Z,100342.56
2022-10-04T16:23:44.229Z,100343.50
2022-10-04T16:26:19.619Z,100348.81
2022-10-04T16:28:57.244Z,100349.75
2022-10-04T16:31:56.096Z,100354.13
2022-10-04T16:34:57.220Z,100358.56
2022-10-04T16:37:24.132Z,100352.56
2022-10-04T16:40:06.062Z,100359.63
2022-10-04T16:42:42.180Z,100368.31
2022-10-04T16:45:09.851Z,100360.56
2022-10-04T16:47:53.069Z,100364.09
2022-10-04T16:50:54.041Z,100358.06
2022-10-04T16:53:48.922Z,100366.78
2022-10-04T16:56:24.882Z,100358.19
2022-10-04T16:59:00.552Z,100356.50
2022-10-04T17:01:38.847Z,100358.28
2022-10-04T17:04:24.409Z,100355.72
2022-10-04T17:06:54.532Z,100348.75
2022-10-04T17:09:43.293Z,100347.94
2022-10-04T17:12:28.466Z,100348.81
2022-10-04T17:14:57.980Z,100340.22
2022-10-04T17:17:31.709Z,100350.66
2022-10-04T17:20:36.383Z,100344.66
2022-10-04T17:23:21.610Z,100342.06
2022-10-04T17:25:57.584Z,100349.91
2022-10-04T17:28:30.795Z,100338.66
2022-10-04T17:31:14.541Z,100346.47
2022-10-04T17:34:03.426Z,100336.94
2022-10-04T17:36:39.471Z,100341.31
2022-10-04T17:39:44.806Z,100345.66
2022-10-04T17:42:24.209Z,100347.41
2022-10-04T17:45:00.407Z,100350.03
2022-10-04T17:47:49.526Z,100351.78
2022-10-04T17:50:39.861Z,100345.69
2022-10-04T17:53:33.813Z,100344.84
2022-10-04T17:56:02.993Z,100355.28
2022-10-04T17:58:51.346Z,100349.25
2022-10-04T18:01:32.159Z,100352.75
2022-10-04T18:04:21.084Z,100349.31
2022-10-04T18:06:51.191Z,100351.03
2022-10-04T18:09:23.975Z,100352.78
2022-10-04T18:11:59.327Z,100356.28
2022-10-04T18:14:42.341Z,100360.59
2022-10-04T18:17:25.366Z,100368.44
2022-10-04T18:20:19.867Z,100374.50
2022-10-04T18:22:51.719Z,100377.94
2022-10-04T18:25:24.201Z,100372.75
2022-10-04T18:28:13.863Z,100370.16
2022-10-04T18:30:53.464Z,100372.75
2022-10-04T18:33:26.636Z,100371.00
2022-10-04T18:36:35.017Z,100379.69
2022-10-04T18:39:15.421Z,100374.50
2022-10-04T18:41:57.027Z,100380.56
2022-10-04T18:44:31.288Z,100377.94
2022-10-04T18:47:02.488Z,100374.47
2022-10-04T18:49:33.388Z,100384.03
2022-10-04T18:52:21.249Z,100396.19
2022-10-04T18:54:57.401Z,100392.72
2022-10-04T18:57:30.697Z,100388.38
2022-10-04T19:00:16.483Z,100400.50
2022-10-04T19:03:17.315Z,100397.88
2022-10-04T19:06:21.806Z,100397.03
2022-10-04T19:09:07.413Z,100391.78
2022-10-04T19:11:41.374Z,100383.94
2022-10-04T19:14:45.681Z,100391.75
2022-10-04T19:17:12.709Z,100386.50
2022-10-04T19:19:51.775Z,100379.59
2022-10-04T19:22:31.372Z,100383.88
2022-10-04T19:25:22.065Z,100381.25
2022-10-04T19:27:52.841Z,100384.72
2022-10-04T19:30:22.542Z,100389.06
2022-10-04T19:33:00.506Z,100380.34
2022-10-04T19:35:49.282Z,100374.25
2022-10-04T19:38:52.348Z,100362.09
2022-10-04T19:41:38.574Z,100367.28
2022-10-04T19:44:11.932Z,100372.50
2022-10-04T19:47:00.724Z,100372.47
2022-10-04T19:50:06.603Z,100364.69
2022-10-04T19:53:01.591Z,100361.19
2022-10-04T19:56:00.192Z,100348.22
2022-10-04T19:58:37.561Z,100351.72
2022-10-04T20:01:32.021Z,100349.16
2022-10-04T20:04:18.003Z,100353.47
2022-10-04T20:06:50.389Z,100352.63
2022-10-04T20:09:48.036Z,100361.28
2022-10-04T20:12:35.615Z,100361.34
2022-10-04T20:15:46.727Z,100358.72
2022-10-04T20:18:33.042Z,100358.72
2022-10-04T20:21:00.364Z,100350.91
2022-10-04T20:23:39.628Z,100358.72
2022-10-04T20:26:10.045Z,100357.88
2022-10-04T20:28:40.818Z,100363.09
2022-10-04T20:31:33.143Z,100361.38
2022-10-04T20:34:33.490Z,100364.00
2022-10-04T20:37:00.846Z,100367.47
2022-10-04T20:39:40.201Z,100364.03
2022-10-04T20:42:27.069Z,100367.50
2022-10-04T20:45:22.285Z,100379.66
2022-10-04T20:47:54.799Z,100385.72
2022-10-04T20:50:25.444Z,100380.53
2022-10-04T20:52:54.526Z,100376.22
2022-10-04T20:55:35.403Z,100386.63
2022-10-04T20:58:04.939Z,100390.09
2022-10-04T21:00:34.301Z,100384.03
2022-10-04T21:03:17.765Z,100390.09
2022-10-04T21:05:53.088Z,100387.47
2022-10-04T21:08:24.650Z,100383.16
2022-10-04T21:11:20.483Z,100379.69
2022-10-04T21:14:01.032Z,100371.00
2022-10-04T21:16:38.268Z,100378.81
2022-10-04T21:19:30.374Z,100385.75
2022-10-04T21:21:58.480Z,100374.47
2022-10-04T21:24:39.112Z,100366.66
2022-10-04T21:27:09.569Z,100371.84
2022-10-04T21:29:37.470Z,100375.34
2022-10-04T21:32:05.010Z,100372.69
2022-10-04T21:34:52.388Z,100365.75
2022-10-04T21:37:19.417Z,100367.47
2022-10-04T21:39:46.337Z,100379.59
2022-10-04T21:42:13.375Z,100376.09
2022-10-04T21:44:40.298Z,100379.59
2022-10-04T21:47:07.357Z,100383.94
2022-10-04T21:49:34.580Z,100380.44
2022-10-04T21:52:02.041Z,100380.44
2022-10-04T21:54:29.115Z,100382.19
2022-10-04T21:56:56.038Z,100380.44
2022-10-04T21:59:23.300Z,100374.34
2022-10-04T22:01:50.410Z,100376.97
2022-10-04T22:04:17.991Z,100372.63
2022-10-04T22:06:45.354Z,100367.44
2022-10-04T22:09:12.553Z,100371.75
2022-10-04T22:11:39.493Z,100362.25
2022-10-04T22:14:07.584Z,100362.25
2022-10-04T22:16:34.819Z,100358.81
2022-10-04T22:19:01.821Z,100350.13
2022-10-04T22:21:28.674Z,100363.16
2022-10-04T22:23:56.416Z,100354.53
2022-10-04T22:26:26.165Z,100353.66
2022-10-04T22:28:56.530Z,100359.75
2022-10-04T22:31:28.481Z,100354.56
2022-10-04T22:33:56.107Z,100343.28
2022-10-04T22:36:41.717Z,100349.41
2022-10-04T22:39:08.718Z,100363.25
2022-10-04T22:41:39.637Z,100355.47
2022-10-04T22:44:15.893Z,100375.41
2022-10-04T22:46:45.845Z,100372.81
2022-10-04T22:49:17.128Z,100363.25
2022-10-04T22:51:45.355Z,100358.91
2022-10-04T22:54:14.682Z,100340.66
2022-10-04T22:56:41.923Z,100339.81
2022-10-04T22:59:13.363Z,100350.22
2022-10-04T23:01:40.653Z,100356.31
2022-10-04T23:04:33.679Z,100363.22
2022-10-04T23:07:00.755Z,100359.75
2022-10-04T23:09:27.685Z,100355.44
2022-10-04T23:11:54.755Z,100352.81
2022-10-04T23:14:21.671Z,100334.59
2022-10-04T23:16:49.153Z,100328.50
2022-10-04T23:19:23.059Z,100338.06
2022-10-04T23:21:50.292Z,100330.22
2022-10-04T23:24:19.573Z,100332.84
2022-10-04T23:26:49.756Z,100331.97
2022-10-04T23:29:19.535Z,100331.94
2022-10-04T23:31:47.426Z,100327.59
2022-10-04T23:34:20.714Z,100331.06
2022-10-04T23:36:48.962Z,100333.66
2022-10-04T23:39:27.524Z,100339.75
2022-10-04T23:41:56.036Z,100345.81
2022-10-04T23:44:24.653Z,100340.59
2022-10-04T23:46:52.097Z,100334.53
2022-10-04T23:49:22.598Z,100330.22
2022-10-04T23:51:58.964Z,100336.28
2022-10-04T23:54:26.525Z,100344.13
2022-10-04T23:56:53.598Z,100344.13
2022-10-04T23:59:24.028Z,100334.63
